Nearby METAR Reports

 

LEVC - Valencia (civ/Mi, Spain
Distacia desde Piles: NO 69km
Actu.: 15/07/2018 22:30
Few Clouds
Few Clouds
 Viento del ENE
Viento: ENE 17 km/h
Temperatura: 27°C
Heat Index: 29°C
Rocío: 22°C
Humedad: 74%
Barómetro: 1011 hPa
Clouds: Few Clouds
Visibility: 10 km
Cloud details: Few Clouds 1219 m
2018/07/15 20:30 LEVC 152030Z 06009KT 9999 FEW040 27/22 Q1011 NOSIG
LEAL - Alicante/El Alte, Spain
Distacia desde Piles: SSO 94km
Actu.: 15/07/2018 22:30
Few Clouds
Few Clouds
 Viento del NNE
Viento: NNE 13 km/h
Temperatura: 25°C
Rocío: 23°C
Humedad: 89%
Barómetro: 1012 hPa
Clouds: Few Clouds
Visibility: 10 km
Cloud details: Few Clouds 1981 m
2018/07/15 20:30 LEAL 152030Z 03007KT 350V070 9999 FEW065 25/23 Q1012 NOSIG
 
LEIB - Ibiza/Es Codola, Spain
Distacia desde Piles: E 119km
Actu.: 15/07/2018 22:30
Few Clouds
Few Clouds
 Viento del S
Viento: S 17 km/h
Temperatura: 26°C
Rocío: 22°C
Humedad: 79%
Barómetro: 1013 hPa
Clouds: Few Clouds
Visibility: 10 km
Cloud details: Few Clouds 366 m
2018/07/15 20:30 LEIB 152030Z 19009KT 160V230 9999 FEW012 26/22 Q1013 NOSIG
LELC - San Javier(Mil/C, Spain
Distacia desde Piles: SSO 154km
Actu.: 15/07/2018 22:30
Despejado
Despejado
 Viento del SSO
Viento: SSO 24 km/h
Temperatura: 26°C
Rocío: 18°C
Humedad: 61%
Barómetro: 1011 hPa
Resumen: Despejado
Visibility: greater than 10 km
2018/07/15 20:30 LELC 152030Z 20013KT 160V240 CAVOK 26/18 Q1011 NOSIG
 
LERI - Alcantarilla(Sp-, Spain
Distacia desde Piles: SO 158km
Actu.: 15/07/2018 20:00
NOT Current
Few Clouds
Few Clouds
 Viento del SE
Viento: SE 17 km/h
Temperatura: 33°C
Rocío: 9°C
Humedad: 23%
Barómetro: 1010 hPa
Clouds: Few Clouds
Visibility: 10 km
Cloud details: Few Clouds 1829 m
2018/07/15 18:00 LERI 151800Z 13009KT 110V170 9999 FEW060 33/09 Q1010 NOSIG
LEAB - Albacete (civ/Mi, Spain
Distacia desde Piles: O 160km
Actu.: 15/07/2018 22:00
Despejado
Despejado
 Viento del O
Viento: O 24 km/h
Temperatura: 26°C
Rocío: 4°C
Humedad: 24%
Barómetro: 1017 hPa
Resumen: Despejado
Visibility: greater than 10 km
2018/07/15 20:00 LEAB 152000Z 26013KT CAVOK 26/04 Q1017 NOSIG